EBBR/BRU METAR and TAF weather

Enter ICAO airport designator
Station Type Date Time Source
EBBR METAR 2022/01/23 11:20 UTC NOAA

EBBR 231120Z 00000KT 6000 BKN024 06/03 Q1036 NOSIG


Station Type Date Time Source
EBBR Decoded METAR 2022/01/23 11:20 UTC NOAA

Bruxelles National, Belgium (EBBR) 50-54N 004-32E 58M
Jan 23, 2022 - 06:20 AM EST / 2022.01.23 1120 UTC
Wind: Calm:0
Visibility: 3 mile(s):0
Sky conditions: mostly cloudy
Temperature: 42 F (6 C)
Dew Point: 37 F (3 C)
Relative Humidity: 81%
Pressure (altimeter): 30.59 in. Hg (1036 hPa)
ob: EBBR 231120Z 00000KT 6000 BKN024 06/03 Q1036 NOSIG
cycle: 11

Station Type Date Time Source
EBBR TAF 2022/01/23 12:29 UTC NOAA

TAF EBBR 231107Z 2312/2418 VRB03KT 7000 BKN020 PROB30
TEMPO 2402/2409 2000 MIFG BR

Example: see airport list